Time;durP1;ratioP1;P1;durP2;ratioP2;P2;SDS_P1;SDS_P2;PMS_P1;PMS_P2;Temp;Humidity;BMP_temperature;BMP_pressure;BME280_temperature;BME280_humidity;BME280_pressure;Samples;Min_cycle;Max_cycle;Signal;HPM_P1;HPM_P2
2021/09/10 00:02:07;;;;;;;16.90;15.27;;;;;;;24.39;50.73;100666.66;5040569;28;20429;-60
2021/09/10 00:04:32;;;;;;;16.77;15.13;;;;;;;23.80;51.98;100670.38;5039047;28;20202;-62
2021/09/10 00:06:57;;;;;;;16.43;14.93;;;;;;;24.20;50.78;100661.38;5038494;28;20185;-61
2021/09/10 00:09:23;;;;;;;16.23;14.73;;;;;;;24.24;50.94;100650.59;5039413;28;20181;-60
2021/09/10 00:11:48;;;;;;;22.23;19.90;;;;;;;24.13;51.33;100657.28;5039086;28;20593;-60
2021/09/10 00:14:14;;;;;;;48.73;38.70;;;;;;;24.49;50.21;100659.09;5038984;28;20489;-60
2021/09/10 00:16:39;;;;;;;25.30;22.57;;;;;;;24.51;50.47;100661.69;5039511;28;20252;-61
2021/09/10 00:19:05;;;;;;;24.70;20.37;;;;;;;24.44;50.25;100662.94;5038950;28;20232;-61
2021/09/10 00:21:30;;;;;;;19.60;17.53;;;;;;;24.41;50.43;100665.72;5038858;28;20175;-61
2021/09/10 00:23:55;;;;;;;19.60;17.80;;;;;;;24.55;50.36;100661.44;5040311;28;20198;-61
2021/09/10 00:26:21;;;;;;;21.63;17.73;;;;;;;24.53;50.25;100660.66;5042480;28;20201;-60
2021/09/10 00:28:46;;;;;;;18.93;16.27;;;;;;;24.43;50.43;100663.88;5044881;28;20253;-60
2021/09/10 00:31:11;;;;;;;18.17;16.50;;;;;;;24.48;50.04;100657.34;5042617;28;20185;-61
2021/09/10 00:33:36;;;;;;;44.40;29.80;;;;;;;24.42;50.69;100654.13;5042369;28;20182;-59
2021/09/10 00:36:02;;;;;;;22.17;19.87;;;;;;;24.43;50.65;100654.06;5038954;28;20174;-58
2021/09/10 00:38:28;;;;;;;20.50;16.97;;;;;;;24.60;50.25;100665.66;5040282;28;20163;-59
2021/09/10 00:40:53;;;;;;;18.60;16.70;;;;;;;24.64;49.74;100665.47;5058743;28;20165;-59
2021/09/10 00:43:18;;;;;;;18.23;16.53;;;;;;;23.58;53.01;100671.38;5058434;28;20180;-62
2021/09/10 00:45:45;;;;;;;17.87;16.27;;;;;;;24.20;51.14;100664.03;5058906;28;20252;-60
2021/09/10 00:48:10;;;;;;;17.70;15.83;;;;;;;24.24;51.02;100666.56;5058772;28;20170;-59
2021/09/10 00:50:38;;;;;;;16.90;15.40;;;;;;;24.20;51.34;100669.34;5062382;28;20502;-60
2021/09/10 00:53:03;;;;;;;17.90;16.10;;;;;;;24.25;50.79;100673.59;5063994;28;20176;-59
2021/09/10 00:55:29;;;;;;;18.70;16.87;;;;;;;23.50;53.01;100669.09;5058901;28;20416;-59
2021/09/10 00:57:54;;;;;;;17.80;16.00;;;;;;;23.90;51.93;100662.88;5058477;28;20298;-59
2021/09/10 01:00:20;;;;;;;16.07;14.57;;;;;;;23.95;51.86;100663.50;5059346;28;20458;-59
2021/09/10 01:02:46;;;;;;;17.20;15.70;;;;;;;24.20;51.31;100664.03;5059360;28;20169;-59
2021/09/10 01:05:11;;;;;;;16.60;15.00;;;;;;;23.84;51.98;100659.53;5058159;28;20242;-59
2021/09/10 01:07:37;;;;;;;17.13;15.53;;;;;;;23.96;52.13;100659.91;5058973;28;20169;-58
2021/09/10 01:10:04;;;;;;;16.47;15.10;;;;;;;23.76;52.90;100663.47;5058170;28;20557;-57
2021/09/10 01:12:30;;;;;;;16.33;14.83;;;;;;;23.99;52.42;100667.72;5058058;28;20208;-55
2021/09/10 01:14:56;;;;;;;16.90;15.40;;;;;;;23.98;52.35;100658.03;5057650;28;20408;-56
2021/09/10 01:17:21;;;;;;;17.43;15.90;;;;;;;23.73;53.00;100664.47;5058761;28;20183;-56
2021/09/10 01:19:47;;;;;;;16.37;14.67;;;;;;;23.44;54.38;100661.38;5058091;28;20413;-58
2021/09/10 01:22:12;;;;;;;19.23;17.60;;;;;;;22.84;55.52;100658.66;5057907;28;20519;-67
2021/09/10 01:25:00;;;;;;;19.40;17.50;;;;;;;22.92;56.13;100660.97;5060902;28;20209;-65
2021/09/10 01:27:25;;;;;;;19.77;18.07;;;;;;;22.99;55.34;100663.31;5061995;28;20219;-66
2021/09/10 01:29:50;;;;;;;19.00;17.30;;;;;;;22.89;55.96;100667.28;5062224;28;20726;-66
2021/09/10 01:32:16;;;;;;;19.13;17.30;;;;;;;22.93;55.65;100662.72;5062197;28;20165;-67
2021/09/10 01:34:41;;;;;;;19.27;17.37;;;;;;;22.48;57.13;100662.78;5062438;28;20176;-66
2021/09/10 01:37:06;;;;;;;18.57;16.97;;;;;;;22.51;57.37;100662.66;5061915;28;20166;-66
2021/09/10 01:39:31;;;;;;;20.00;18.10;;;;;;;22.62;56.96;100674.66;5052638;28;20185;-66
2021/09/10 01:41:57;;;;;;;19.17;17.27;;;;;;;22.82;56.04;100671.16;5042213;28;20410;-65
2021/09/10 01:44:22;;;;;;;18.63;16.83;;;;;;;22.48;57.18;100661.94;5041596;28;20229;-65
2021/09/10 01:46:48;;;;;;;18.87;16.97;;;;;;;22.45;57.30;100664.75;5041879;28;20178;-66
2021/09/10 01:49:13;;;;;;;19.57;17.77;;;;;;;22.69;56.24;100660.16;5041937;28;20170;-65
2021/09/10 01:51:38;;;;;;;18.80;17.20;;;;;;;22.79;56.05;100660.66;5041765;28;20170;-66
2021/09/10 01:54:04;;;;;;;20.27;18.27;;;;;;;22.68;56.87;100664.63;5040842;28;20185;-65
2021/09/10 01:56:29;;;;;;;18.70;17.00;;;;;;;22.59;57.16;100669.47;5042147;28;20170;-66
2021/09/10 01:58:55;;;;;;;19.30;17.40;;;;;;;22.56;57.32;100674.91;5041311;28;20218;-65
2021/09/10 02:01:22;;;;;;;19.67;17.53;;;;;;;22.47;57.58;100674.34;5041525;28;20212;-65
2021/09/10 02:03:47;;;;;;;20.57;18.63;;;;;;;22.59;57.34;100677.44;5041537;28;20598;-65
2021/09/10 02:06:13;;;;;;;20.40;18.50;;;;;;;22.50;57.63;100683.97;5041497;28;20391;-65
2021/09/10 02:08:38;;;;;;;19.30;17.37;;;;;;;22.35;58.13;100689.00;5041308;28;20213;-66
2021/09/10 02:11:03;;;;;;;20.13;18.13;;;;;;;22.37;58.09;100692.47;5041677;28;20178;-66
2021/09/10 02:13:28;;;;;;;20.23;18.43;;;;;;;22.14;59.08;100688.03;5041232;28;20666;-65
2021/09/10 02:15:54;;;;;;;22.73;18.30;;;;;;;22.30;58.89;100693.59;5041841;28;20271;-66
2021/09/10 02:18:19;;;;;;;21.93;19.30;;;;;;;22.08;59.35;100690.91;5043023;28;20223;-66
2021/09/10 02:20:44;;;;;;;21.10;19.00;;;;;;;22.50;58.19;100689.28;5041280;28;20170;-66
2021/09/10 02:23:10;;;;;;;21.90;18.97;;;;;;;22.57;58.33;100689.91;5040841;28;20174;-66
2021/09/10 02:25:35;;;;;;;21.83;19.63;;;;;;;22.82;57.59;100682.63;5041369;28;20174;-67
2021/09/10 02:28:00;;;;;;;20.90;18.90;;;;;;;22.69;57.54;100689.41;5041223;28;20251;-65
2021/09/10 02:30:25;;;;;;;21.77;19.67;;;;;;;22.49;58.35;100701.72;5040954;28;20450;-66
2021/09/10 02:32:51;;;;;;;21.83;19.83;;;;;;;22.64;58.21;100691.41;5041520;28;20189;-66
2021/09/10 02:35:16;;;;;;;23.37;21.27;;;;;;;22.29;59.13;100698.97;5039568;28;20189;-65
2021/09/10 02:37:42;;;;;;;22.27;20.03;;;;;;;22.62;58.82;100696.75;5040997;28;20174;-67
2021/09/10 02:40:08;;;;;;;23.80;21.40;;;;;;;22.22;59.61;100706.31;5041190;28;20567;-67
2021/09/10 02:42:33;;;;;;;24.50;22.10;;;;;;;22.32;59.35;100701.50;5040232;28;20206;-67
2021/09/10 02:44:58;;;;;;;25.70;23.10;;;;;;;22.29;59.83;100702.50;5040198;28;20496;-68
2021/09/10 02:47:24;;;;;;;25.40;22.80;;;;;;;22.07;60.75;100707.78;5041304;28;20170;-67
2021/09/10 02:49:49;;;;;;;25.23;22.70;;;;;;;22.12;60.81;100715.56;5040714;28;20174;-67
2021/09/10 02:52:14;;;;;;;27.03;24.33;;;;;;;22.11;61.33;100705.88;5040534;28;20201;-66
2021/09/10 02:54:39;;;;;;;23.73;21.43;;;;;;;22.36;60.84;100706.66;5040611;28;20303;-66
2021/09/10 02:57:05;;;;;;;26.93;24.30;;;;;;;22.24;61.29;100709.78;5040526;28;20210;-65
2021/09/10 02:59:30;;;;;;;24.50;21.97;;;;;;;22.06;62.04;100706.06;5040238;28;20241;-67
2021/09/10 03:01:55;;;;;;;25.43;22.93;;;;;;;22.25;61.63;100714.16;5040697;28;20174;-66
2021/09/10 03:04:21;;;;;;;25.60;23.07;;;;;;;22.18;62.36;100710.88;5040187;28;20201;-66
2021/09/10 03:06:46;;;;;;;24.50;22.20;;;;;;;21.88;63.22;100712.94;5040540;28;20170;-67
2021/09/10 03:09:11;;;;;;;24.17;21.57;;;;;;;22.33;61.92;100704.09;5040827;28;20174;-66
2021/09/10 03:11:37;;;;;;;25.30;22.57;;;;;;;21.78;64.16;100712.41;5040263;28;20437;-65
2021/09/10 03:14:02;;;;;;;25.37;22.97;;;;;;;21.98;64.04;100710.81;5039910;28;20181;-66
2021/09/10 03:16:27;;;;;;;25.60;21.90;;;;;;;22.07;63.37;100705.16;5040449;28;20184;-66
2021/09/10 03:18:53;;;;;;;24.73;22.37;;;;;;;21.96;64.54;100712.63;5040092;28;20188;-66
2021/09/10 03:21:18;;;;;;;26.33;23.90;;;;;;;21.95;64.51;100722.41;5039935;28;20201;-66
2021/09/10 03:23:43;;;;;;;25.90;23.30;;;;;;;21.75;65.64;100717.00;5040185;28;20194;-65
2021/09/10 03:26:09;;;;;;;25.00;22.67;;;;;;;21.49;66.79;100709.03;5039961;28;20186;-65
2021/09/10 03:28:34;;;;;;;24.73;22.40;;;;;;;21.51;67.36;100714.28;5039779;28;20201;-65
2021/09/10 03:30:59;;;;;;;27.73;24.63;;;;;;;21.65;67.19;100714.69;5040307;28;20571;-65
2021/09/10 03:33:24;;;;;;;26.93;24.07;;;;;;;21.58;67.93;100707.88;5039588;28;20174;-65
2021/09/10 03:35:50;;;;;;;25.93;23.27;;;;;;;21.40;68.81;100709.34;5039881;28;20185;-65
2021/09/10 03:38:16;;;;;;;28.20;25.30;;;;;;;21.35;69.36;100701.59;5040250;28;20178;-66
2021/09/10 03:40:41;;;;;;;28.03;25.10;;;;;;;21.40;69.46;100697.91;5039588;28;20224;-66
2021/09/10 03:43:07;;;;;;;26.53;23.87;;;;;;;21.20;70.09;100700.34;5039536;28;20178;-66
2021/09/10 03:45:32;;;;;;;27.30;24.60;;;;;;;21.12;70.24;100698.88;5039700;28;20252;-66
2021/09/10 03:47:58;;;;;;;28.20;25.40;;;;;;;20.82;71.66;100707.84;5040039;28;20591;-65
2021/09/10 03:50:23;;;;;;;25.60;23.30;;;;;;;21.47;68.92;100688.78;5039407;28;20182;-65
2021/09/10 03:52:48;;;;;;;31.07;27.20;;;;;;;21.61;68.75;100693.59;5040014;28;20576;-65
2021/09/10 03:55:14;;;;;;;31.33;28.13;;;;;;;21.33;70.12;100699.91;5039420;28;20244;-65
2021/09/10 03:57:40;;;;;;;28.57;25.73;;;;;;;21.28;69.78;100696.53;5040556;28;20301;-66
2021/09/10 04:00:06;;;;;;;29.47;26.53;;;;;;;21.16;69.89;100698.72;5041360;28;20243;-66
2021/09/10 04:02:31;;;;;;;29.00;26.20;;;;;;;21.35;69.52;100701.59;5044372;28;20184;-65
2021/09/10 04:04:56;;;;;;;31.00;28.10;;;;;;;21.35;69.58;100696.28;5041453;28;20468;-65
2021/09/10 04:07:21;;;;;;;30.37;27.20;;;;;;;21.36;69.60;100700.66;5039320;28;20216;-66
2021/09/10 04:09:47;;;;;;;32.27;28.80;;;;;;;21.01;70.77;100702.78;5039221;28;20174;-66
2021/09/10 04:12:12;;;;;;;30.80;27.57;;;;;;;21.10;70.78;100693.63;5039001;28;20162;-65
2021/09/10 04:14:37;;;;;;;33.67;30.07;;;;;;;20.93;72.42;100699.53;5039368;28;20527;-66
2021/09/10 04:17:03;;;;;;;33.17;29.60;;;;;;;20.81;73.61;100695.50;5038940;28;20179;-65
2021/09/10 04:19:28;;;;;;;33.97;30.57;;;;;;;20.61;74.77;100701.41;5038931;28;20205;-65
2021/09/10 04:21:53;;;;;;;38.33;34.20;;;;;;;20.53;75.50;100695.50;5039448;28;20541;-65
2021/09/10 04:24:19;;;;;;;38.67;34.30;;;;;;;20.11;77.80;100694.19;5038656;28;20206;-65
2021/09/10 04:26:44;;;;;;;39.93;34.50;;;;;;;20.28;77.83;100690.13;5038897;28;20171;-65
2021/09/10 04:29:10;;;;;;;43.50;37.37;;;;;;;20.39;77.51;100703.91;5039170;28;20226;-66
2021/09/10 04:31:35;;;;;;;45.50;39.50;;;;;;;20.35;76.75;100703.13;5038750;28;20445;-66
2021/09/10 04:34:01;;;;;;;47.90;41.80;;;;;;;20.26;78.38;100702.56;5038537;28;20166;-65
2021/09/10 04:36:26;;;;;;;50.70;40.90;;;;;;;20.62;75.82;100703.16;5039134;28;20170;-66
2021/09/10 04:38:51;;;;;;;53.10;46.33;;;;;;;20.78;76.10;100710.63;5038673;28;20189;-66
2021/09/10 04:41:17;;;;;;;58.23;46.43;;;;;;;20.49;77.09;100707.97;5039607;28;20170;-66
2021/09/10 04:43:42;;;;;;;52.73;44.30;;;;;;;20.48;77.89;100714.19;5037956;28;20283;-66
2021/09/10 04:46:07;;;;;;;51.73;44.50;;;;;;;20.38;77.88;100720.72;5038427;28;20228;-66
2021/09/10 04:48:32;;;;;;;51.47;42.00;;;;;;;20.57;77.21;100707.75;5038633;28;20498;-66
2021/09/10 04:50:59;;;;;;;51.77;43.03;;;;;;;21.05;75.82;100724.72;5038822;28;20235;-66
2021/09/10 04:53:24;;;;;;;51.40;45.63;;;;;;;21.07;75.10;100722.91;5038179;28;20166;-66
2021/09/10 04:55:49;;;;;;;45.10;39.10;;;;;;;20.71;76.22;100722.34;5038433;28;20496;-66
2021/09/10 04:58:15;;;;;;;48.67;43.47;;;;;;;20.83;76.70;100717.50;5037531;28;20222;-66
2021/09/10 05:00:40;;;;;;;52.60;45.00;;;;;;;20.95;76.02;100728.63;5038325;28;20524;-66
2021/09/10 05:03:05;;;;;;;50.53;43.20;;;;;;;20.89;76.10;100731.47;5038482;28;20303;-66
2021/09/10 05:05:31;;;;;;;47.57;41.40;;;;;;;20.68;77.17;100732.13;5038040;28;20220;-65
2021/09/10 05:07:56;;;;;;;55.77;43.33;;;;;;;20.80;77.01;100725.56;5038387;28;20170;-65
2021/09/10 05:10:21;;;;;;;53.00;44.97;;;;;;;20.98;76.58;100739.97;5038664;28;20185;-65
2021/09/10 05:12:47;;;;;;;56.93;47.17;;;;;;;20.69;78.28;100736.50;5038138;28;20174;-65
2021/09/10 05:15:12;;;;;;;57.93;45.23;;;;;;;20.96;76.39;100741.81;5038085;28;20312;-66
2021/09/10 05:17:37;;;;;;;53.47;44.50;;;;;;;20.68;77.98;100747.13;5038489;28;20170;-65
2021/09/10 05:20:03;;;;;;;55.93;44.70;;;;;;;21.02;75.96;100756.63;5037868;28;20166;-66
2021/09/10 05:22:29;;;;;;;51.63;44.10;;;;;;;21.02;77.14;100756.63;5038012;28;20595;-67
2021/09/10 05:24:54;;;;;;;55.30;46.23;;;;;;;20.90;77.07;100757.06;5038267;28;20190;-67
2021/09/10 05:27:19;;;;;;;51.87;43.10;;;;;;;20.60;77.74;100755.31;5038382;28;20261;-67
2021/09/10 05:29:44;;;;;;;53.17;44.80;;;;;;;20.96;76.78;100760.38;5062777;28;20208;-65
2021/09/10 05:32:10;;;;;;;51.60;45.33;;;;;;;21.02;76.90;100757.50;5069031;28;20491;-65
2021/09/10 05:34:35;;;;;;;59.40;46.80;;;;;;;21.00;76.62;100761.13;5062789;28;20173;-65
2021/09/10 05:37:00;;;;;;;53.70;46.10;;;;;;;21.20;74.95;100763.97;5073991;28;20217;-66
2021/09/10 05:39:26;;;;;;;49.97;41.80;;;;;;;21.24;74.54;100769.16;5062941;28;20260;-66
2021/09/10 05:41:51;;;;;;;51.30;43.70;;;;;;;21.13;74.90;100754.47;5068839;28;20213;-66
2021/09/10 05:44:18;;;;;;;46.23;41.23;;;;;;;20.58;76.98;100750.97;5069314;28;20209;-66
2021/09/10 05:46:43;;;;;;;68.63;58.53;;;;;;;21.33;75.32;100756.44;5061985;28;20170;-67
2021/09/10 05:49:10;;;;;;;52.70;44.67;;;;;;;21.20;76.57;100756.03;5063630;28;20737;-66
2021/09/10 05:51:35;;;;;;;60.30;51.07;;;;;;;20.97;77.16;100758.56;5070318;28;20181;-66
2021/09/10 05:54:01;;;;;;;60.80;48.70;;;;;;;20.97;76.96;100762.09;5066576;28;20461;-66
2021/09/10 05:56:26;;;;;;;56.33;48.57;;;;;;;21.12;76.59;100767.78;5050592;28;20174;-66
2021/09/10 05:58:51;;;;;;;59.13;48.23;;;;;;;20.79;78.25;100776.81;5047992;28;20221;-66
2021/09/10 06:01:17;;;;;;;53.57;47.70;;;;;;;20.97;76.48;100775.34;5056750;28;20169;-65
2021/09/10 06:03:43;;;;;;;54.30;48.40;;;;;;;21.01;76.09;100781.41;5054462;28;20220;-65
2021/09/10 06:06:09;;;;;;;64.63;49.60;;;;;;;21.15;76.37;100779.16;5057201;28;20183;-66
2021/09/10 06:08:36;;;;;;;63.43;49.50;;;;;;;21.28;74.92;100792.84;5057807;28;20789;-66
2021/09/10 06:11:02;;;;;;;56.07;48.00;;;;;;;21.18;75.13;100796.75;5060375;28;20223;-66
2021/09/10 06:13:27;;;;;;;61.10;49.10;;;;;;;21.01;76.96;100819.41;5061543;28;20416;-66
2021/09/10 06:15:52;;;;;;;51.40;45.80;;;;;;;21.00;75.20;100838.84;5061237;28;20178;-66
2021/09/10 06:18:18;;;;;;;48.47;42.73;;;;;;;20.78;75.96;100838.69;5061317;28;20177;-66
2021/09/10 06:20:43;;;;;;;47.17;42.13;;;;;;;21.10;74.85;100844.72;5061131;28;20191;-66
2021/09/10 06:23:08;;;;;;;52.87;42.40;;;;;;;20.95;74.75;100850.53;5060988;28;20209;-66
2021/09/10 06:25:34;;;;;;;46.57;40.27;;;;;;;21.11;74.03;100853.56;5077678;28;20214;-66
2021/09/10 06:27:59;;;;;;;49.10;41.93;;;;;;;21.26;73.80;100844.22;5080911;28;20169;-66
2021/09/10 06:30:25;;;;;;;43.57;38.87;;;;;;;21.24;73.71;100835.44;5080471;28;20445;-66
2021/09/10 06:32:50;;;;;;;43.93;39.23;;;;;;;;;;5060321;28;20260;-66
2021/09/10 06:35:15;;;;;;;48.00;41.50;;;;;;;21.32;74.52;100830.75;5060156;28;20170;-66
2021/09/10 06:37:41;;;;;;;48.27;41.80;;;;;;;21.02;75.88;100830.84;5061752;28;20173;-66
2021/09/10 06:40:07;;;;;;;44.23;39.40;;;;;;;20.63;78.15;100823.22;5060754;28;20290;-67
2021/09/10 06:42:32;;;;;;;48.53;42.53;;;;;;;20.86;77.97;100820.75;5060233;28;20235;-66
2021/09/10 06:44:57;;;;;;;49.40;40.63;;;;;;;20.80;76.68;100818.28;5060746;28;20448;-66
2021/09/10 06:47:23;;;;;;;43.57;38.93;;;;;;;21.37;74.41;100826.16;5044610;28;20221;-67
2021/09/10 06:49:48;;;;;;;41.47;36.97;;;;;;;21.35;74.45;100834.16;5040452;28;20540;-66
2021/09/10 06:52:14;;;;;;;43.83;38.47;;;;;;;21.29;74.45;100828.22;5040735;28;20166;-66
2021/09/10 06:54:40;;;;;;;48.67;39.97;;;;;;;21.43;74.44;100839.19;5040079;28;20205;-66
2021/09/10 06:57:05;;;;;;;42.80;37.23;;;;;;;21.52;73.72;100835.38;5040536;28;20441;-66
2021/09/10 06:59:31;;;;;;;42.80;38.20;;;;;;;20.69;77.13;100846.91;5040298;28;20444;-66
2021/09/10 07:01:56;;;;;;;44.30;39.60;;;;;;;20.57;78.14;100841.97;5040590;28;20261;-67
2021/09/10 07:04:22;;;;;;;50.53;42.87;;;;;;;21.21;76.69;100844.38;5040942;28;20622;-67
2021/09/10 07:06:47;;;;;;;52.97;46.30;;;;;;;21.13;76.94;100841.94;5041194;28;20231;-67
2021/09/10 07:09:12;;;;;;;47.30;42.03;;;;;;;20.79;77.97;100852.78;5042104;28;20445;-67
2021/09/10 07:11:38;;;;;;;49.53;43.40;;;;;;;21.25;76.50;100872.50;5041453;28;20289;-66
2021/09/10 07:14:03;;;;;;;49.23;42.13;;;;;;;21.02;78.40;100870.59;5039604;28;20190;-66
2021/09/10 07:16:29;;;;;;;52.07;46.37;;;;;;;21.28;77.38;100888.31;5040378;28;20170;-67
2021/09/10 07:18:54;;;;;;;51.27;43.00;;;;;;;21.18;76.49;100886.91;5039878;28;20181;-66
2021/09/10 07:21:20;;;;;;;48.33;42.10;;;;;;;21.84;73.90;100886.50;5039692;28;20253;-66
2021/09/10 07:23:45;;;;;;;53.70;44.93;;;;;;;21.59;76.07;100882.00;5039664;28;20206;-66
2021/09/10 07:26:10;;;;;;;53.03;47.23;;;;;;;21.39;75.36;100895.91;5039472;28;20179;-66
2021/09/10 07:28:36;;;;;;;54.53;45.50;;;;;;;21.32;76.86;100897.03;5039330;28;20198;-65
2021/09/10 07:31:03;;;;;;;52.47;46.53;;;;;;;21.34;77.05;100897.88;5039503;28;20497;-66
2021/09/10 07:33:28;;;;;;;54.13;45.40;;;;;;;21.16;77.75;100892.25;5044529;28;20224;-66
2021/09/10 07:35:54;;;;;;;59.70;47.90;;;;;;;21.25;77.31;100900.81;5048234;28;20860;-66
2021/09/10 07:38:20;;;;;;;51.93;45.70;;;;;;;21.48;76.26;100908.03;5049678;28;20476;-65
2021/09/10 07:40:46;;;;;;;51.50;43.50;;;;;;;21.62;75.85;100912.88;5048874;28;20210;-66
2021/09/10 07:43:11;;;;;;;51.57;44.53;;;;;;;21.47;76.67;100911.56;5042758;28;20407;-66
2021/09/10 07:45:36;;;;;;;50.37;43.37;;;;;;;21.61;75.96;100919.09;5039360;28;20547;-66
2021/09/10 07:48:02;;;;;;;50.80;44.77;;;;;;;21.28;76.99;100911.31;5044642;28;20178;-66
2021/09/10 07:50:28;;;;;;;53.77;44.67;;;;;;;21.66;76.05;100915.41;5054064;28;20181;-67
2021/09/10 07:52:54;;;;;;;54.93;43.87;;;;;;;21.75;75.94;100908.91;5055793;28;20188;-65
2021/09/10 07:55:19;;;;;;;54.20;47.40;;;;;;;21.65;76.37;100911.00;5055536;28;20862;-67
2021/09/10 07:57:44;;;;;;;53.47;45.47;;;;;;;21.47;77.14;100912.47;5076704;28;20228;-67
2021/09/10 08:00:10;;;;;;;54.70;47.67;;;;;;;21.37;77.87;100916.31;5065835;28;20189;-67
2021/09/10 08:02:37;;;;;;;58.00;47.67;;;;;;;21.87;76.01;100913.78;5048467;28;20182;-67
2021/09/10 08:05:03;;;;;;;43.60;39.00;;;;;;;21.92;73.25;100924.25;5048522;28;20323;-66
2021/09/10 08:07:29;;;;;;;42.10;37.80;;;;;;;21.95;73.59;100923.28;5049746;28;20408;-64
2021/09/10 08:09:54;;;;;;;49.13;42.20;;;;;;;21.87;74.13;100912.91;5045120;28;20444;-65
2021/09/10 08:12:19;;;;;;;48.30;41.60;;;;;;;21.57;74.69;100914.81;5038060;28;20178;-65
2021/09/10 08:14:45;;;;;;;42.10;37.43;;;;;;;21.63;74.00;100933.19;5038786;28;20178;-67
2021/09/10 08:17:10;;;;;;;40.20;35.10;;;;;;;21.91;73.65;100926.97;5038978;28;20213;-66
2021/09/10 08:19:35;;;;;;;33.30;29.90;;;;;;;21.83;73.33;100932.53;5038732;28;20174;-66
2021/09/10 08:22:01;;;;;;;34.80;31.20;;;;;;;21.39;75.02;100940.13;5044345;28;20178;-66
2021/09/10 08:24:26;;;;;;;27.30;24.60;;;;;;;21.21;74.44;100947.75;5058399;28;20221;-66
2021/09/10 08:26:51;;;;;;;21.53;19.33;;;;;;;21.00;75.22;100962.56;5058595;28;20166;-66
2021/09/10 08:29:17;;;;;;;23.63;21.27;;;;;;;21.06;75.35;100967.66;5062937;28;20203;-65
2021/09/10 08:31:42;;;;;;;24.80;22.40;;;;;;;21.26;75.19;100969.72;5078796;28;20252;-66
2021/09/10 08:34:07;;;;;;;24.73;22.20;;;;;;;21.00;76.19;100981.13;5078212;28;20203;-66
2021/09/10 08:36:33;;;;;;;27.17;24.27;;;;;;;21.12;75.78;100982.50;5078151;28;20493;-67
2021/09/10 08:39:00;;;;;;;25.57;22.60;;;;;;;21.00;76.21;100978.47;5078399;28;20530;-67
2021/09/10 08:41:27;;;;;;;27.23;24.47;;;;;;;21.19;75.88;100984.09;5078216;28;20203;-66
2021/09/10 08:43:52;;;;;;;28.33;25.60;;;;;;;21.16;75.97;100998.28;5078083;28;20892;-67
2021/09/10 08:46:18;;;;;;;28.30;25.30;;;;;;;20.89;76.89;100997.34;5078357;28;20442;-66
2021/09/10 08:48:45;;;;;;;32.00;27.00;;;;;;;21.01;76.42;101007.59;5078095;28;20222;-67
2021/09/10 08:51:11;;;;;;;27.47;24.70;;;;;;;20.77;77.78;101006.50;5054942;28;20180;-65
2021/09/10 08:53:36;;;;;;;27.70;24.80;;;;;;;21.04;76.42;100993.38;5049348;28;20414;-66
2021/09/10 08:56:01;;;;;;;26.10;23.40;;;;;;;20.94;77.26;100973.34;5044067;28;20166;-67
2021/09/10 08:58:27;;;;;;;25.97;23.27;;;;;;;20.83;77.80;100966.56;5037681;28;20283;-66
2021/09/10 09:00:57;;;;;;;32.10;26.07;;;;;;;21.07;76.97;100961.47;5038361;28;20445;-67
2021/09/10 09:03:27;;;;;;;24.93;22.27;;;;;;;20.74;77.77;100945.63;5053422;28;20569;-68
2021/09/10 09:05:52;;;;;;;31.53;23.80;;;;;;;20.35;80.26;100946.72;5057831;28;20412;-65
2021/09/10 09:08:18;;;;;;;27.63;23.00;;;;;;;20.96;77.17;100945.88;5057757;28;20602;-66
2021/09/10 09:10:56;;;;;;;21.80;19.50;;;;;;;20.95;76.97;100945.94;5040884;28;20610;-65
2021/09/10 09:13:24;;;;;;;23.03;20.47;;;;;;;20.91;77.08;100952.25;5036769;28;20428;-65
2021/09/10 09:15:49;;;;;;;18.50;16.60;;;;;;;20.72;76.92;100943.97;5038305;28;20392;-65
2021/09/10 09:18:14;;;;;;;18.97;17.03;;;;;;;20.97;76.96;100944.09;5037259;28;20416;-65
2021/09/10 09:20:46;;;;;;;17.67;15.90;;;;;;;20.66;77.45;100937.03;5037498;28;20873;-65
2021/09/10 09:23:12;;;;;;;17.17;15.43;;;;;;;20.84;76.96;100933.00;5037464;28;20170;-66
2021/09/10 09:25:40;;;;;;;19.42;17.45;;;;;;;20.72;78.00;100942.19;5041777;28;20437;-64
2021/09/10 09:28:26;;;;;;;17.93;15.37;;;;;;;20.78;77.76;100930.53;5057626;28;20182;-64
2021/09/10 09:31:03;;;;;;;16.60;14.80;;;;;;;20.56;77.49;100927.63;5057608;28;20440;-65
2021/09/10 09:33:35;;;;;;;17.23;15.63;;;;;;;20.79;76.96;100917.22;5057072;28;20426;-64
2021/09/10 09:36:02;;;;;;;19.27;17.37;;;;;;;20.69;76.74;100921.09;5057621;28;20495;-66
2021/09/10 09:38:31;;;;;;;23.17;19.97;;;;;;;20.82;77.00;100910.97;5057214;28;20412;-67
2021/09/10 09:40:59;;;;;;;21.70;18.70;;;;;;;21.13;75.92;100904.72;5055228;28;20455;-67
2021/09/10 09:43:28;;;;;;;21.10;18.00;;;;;;;20.79;76.79;100900.47;5057065;28;20412;-68
2021/09/10 09:45:54;;;;;;;22.33;19.93;;;;;;;20.78;77.68;100907.56;5060486;28;20394;-68
2021/09/10 09:48:21;;;;;;;22.33;19.77;;;;;;;20.79;77.85;100914.59;5060655;28;20847;-68
2021/09/10 09:50:48;;;;;;;21.43;19.27;;;;;;;20.72;77.79;100918.34;5053767;28;20803;-67
2021/09/10 09:53:14;;;;;;;22.80;19.17;;;;;;;20.63;77.89;100918.56;5045724;28;20545;-66
2021/09/10 09:55:42;;;;;;;23.33;20.83;;;;;;;20.80;77.95;100911.03;5052041;28;20450;-66
2021/09/10 09:58:07;;;;;;;22.17;20.03;;;;;;;20.76;78.64;100912.03;5048430;28;20468;-65
2021/09/10 10:00:37;;;;;;;30.10;20.80;;;;;;;20.71;79.04;100900.69;5055534;28;20416;-65
2021/09/10 10:03:03;;;;;;;21.87;19.63;;;;;;;21.01;76.46;100893.59;5061451;28;20181;-65
2021/09/10 10:05:40;;;;;;;19.63;17.73;;;;;;;21.43;73.90;100899.34;5060946;28;20765;-65
2021/09/10 10:08:07;;;;;;;19.30;17.30;;;;;;;21.66;72.27;100922.47;5060404;28;20401;-65
2021/09/10 10:10:37;;;;;;;17.67;15.87;;;;;;;21.49;72.29;100926.53;5051253;28;20431;-65
2021/09/10 10:13:05;;;;;;;17.40;15.70;;;;;;;20.97;74.91;100937.03;5040831;28;20424;-65
2021/09/10 10:15:30;;;;;;;17.33;14.70;;;;;;;21.61;72.79;100935.91;5040338;28;20401;-67
2021/09/10 10:17:57;;;;;;;14.20;12.80;;;;;;;21.85;71.21;100939.53;5040794;28;20749;-66
2021/09/10 10:20:44;;;;;;;17.30;14.97;;;;;;;21.94;70.73;100940.13;5040822;28;20162;-67
2021/09/10 10:23:46;;;;;;;15.27;13.63;;;;;;;21.79;70.63;100946.81;5040941;28;20648;-66
2021/09/10 10:26:16;;;;;;;12.57;11.27;;;;;;;22.19;68.15;100940.09;5058741;28;20394;-66
2021/09/10 10:28:46;;;;;;;14.83;13.30;;;;;;;21.87;69.26;100947.44;5076865;28;20521;-65
2021/09/10 10:31:12;;;;;;;11.03;9.20;;;;;;;21.88;69.22;100949.16;5064653;28;20820;-65
2021/09/10 10:34:03;;;;;;;11.83;10.53;;;;;;;22.29;67.14;100938.00;5059902;28;20513;-64
2021/09/10 10:36:36;;;;;;;15.50;13.63;;;;;;;21.74;69.14;100943.44;5050816;28;20718;-65
2021/09/10 10:39:08;;;;;;;11.90;9.80;;;;;;;22.03;69.39;100939.81;5051200;28;20500;-70
2021/09/10 10:41:46;;;;;;;11.77;10.67;;;;;;;21.51;71.57;100937.97;5055761;28;20825;-65
2021/09/10 10:44:30;;;;;;;13.03;11.73;;;;;;;22.23;69.26;100923.16;5051637;28;20553;-66
2021/09/10 10:47:06;;;;;;;16.63;15.03;;;;;;;21.52;72.15;100929.06;5058611;28;20420;-65
2021/09/10 10:49:33;;;;;;;13.97;12.67;;;;;;;21.62;73.27;100936.75;5053339;28;20420;-65
2021/09/10 10:51:58;;;;;;;13.80;12.40;;;;;;;21.36;72.54;100926.09;5055668;28;20757;-65
2021/09/10 10:54:29;;;;;;;14.17;12.53;;;;;;;22.14;68.53;100923.50;5066191;28;20444;-66
2021/09/10 10:56:58;;;;;;;13.50;12.23;;;;;;;22.31;67.38;100920.22;5053954;28;20170;-68
2021/09/10 10:59:25;;;;;;;13.40;12.00;;;;;;;22.26;67.83;100916.84;5056415;28;20482;-66
2021/09/10 11:02:22;;;;;;;16.77;13.93;;;;;;;23.00;65.73;100924.72;5064216;28;20415;-66
2021/09/10 11:04:49;;;;;;;17.10;13.50;;;;;;;22.85;67.11;100915.56;5052450;28;20465;-65
2021/09/10 11:07:18;;;;;;;15.33;12.17;;;;;;;23.34;64.76;100923.41;5055151;28;20418;-65